Time;durP1;ratioP1;P1;durP2;ratioP2;P2;SDS_P1;SDS_P2;PMS_P1;PMS_P2;Temp;Humidity;BMP_temperature;BMP_pressure;BME280_temperature;BME280_humidity;BME280_pressure;Samples;Min_cycle;Max_cycle;Signal;HPM_P1;HPM_P2
2021/04/29 00:01:14;;;;;;;11.15;6.80;;;;;;;6.77;54.88;100028.59;1706316;83;21018;-63
2021/04/29 00:03:42;;;;;;;11.60;6.15;;;;;;;6.75;55.19;100028.01;1721205;83;21173;-61
2021/04/29 00:06:10;;;;;;;10.80;7.33;;;;;;;6.71;55.50;100030.81;1710518;83;21173;-61
2021/04/29 00:08:39;;;;;;;8.35;6.03;;;;;;;6.67;55.52;100022.91;1715539;82;21996;-64
2021/04/29 00:11:08;;;;;;;10.25;5.60;;;;;;;6.65;55.70;100029.00;1680187;84;21190;-61
2021/04/29 00:13:36;;;;;;;10.08;7.17;;;;;;;6.61;55.73;100023.79;1735961;81;21158;-61
2021/04/29 00:16:05;;;;;;;11.22;7.45;;;;;;;6.59;55.80;100020.50;1719383;81;22630;-62
2021/04/29 00:18:34;;;;;;;11.30;6.85;;;;;;;6.61;55.87;100022.97;1723279;83;21645;-63
2021/04/29 00:21:02;;;;;;;9.05;6.75;;;;;;;6.62;55.89;100020.06;1723765;81;22624;-61
2021/04/29 00:23:30;;;;;;;9.73;5.90;;;;;;;6.65;55.95;100018.31;1675177;83;21172;-62
2021/04/29 00:25:58;;;;;;;8.75;6.03;;;;;;;6.67;55.99;100022.91;1678479;84;21057;-61
2021/04/29 00:28:26;;;;;;;9.98;6.95;;;;;;;6.68;56.03;100023.21;1702466;84;21180;-61
2021/04/29 00:30:55;;;;;;;11.10;7.78;;;;;;;6.62;56.57;100022.73;1722914;82;21134;-61
2021/04/29 00:33:23;;;;;;;11.12;6.80;;;;;;;6.58;56.58;100017.52;1746140;82;21232;-61
2021/04/29 00:35:51;;;;;;;13.08;7.47;;;;;;;6.58;56.51;100025.02;1726997;82;21196;-61
2021/04/29 00:38:19;;;;;;;9.18;7.17;;;;;;;6.56;56.82;100023.10;1726870;82;21249;-61
2021/04/29 00:40:47;;;;;;;8.88;6.80;;;;;;;6.52;57.11;100019.73;1750546;82;21221;-60
2021/04/29 00:43:15;;;;;;;13.53;8.78;;;;;;;6.47;57.17;100018.23;1726981;82;21165;-61
2021/04/29 00:45:43;;;;;;;10.38;6.58;;;;;;;6.44;57.26;100018.12;1723014;82;21394;-62
2021/04/29 00:48:10;;;;;;;8.20;6.00;;;;;;;6.46;57.22;100017.41;1718688;82;21764;-61
2021/04/29 00:50:40;;;;;;;13.65;9.90;;;;;;;6.46;57.63;100021.41;1728937;81;21038;-61
2021/04/29 00:53:08;;;;;;;15.08;11.53;;;;;;;6.46;57.54;100020.08;1734674;81;21139;-60
2021/04/29 00:55:35;;;;;;;13.05;8.10;;;;;;;6.43;57.61;100019.67;1723944;82;21189;-62
2021/04/29 00:58:04;;;;;;;9.40;7.33;;;;;;;6.41;57.82;100016.41;1730903;82;21593;-64
2021/04/29 01:00:34;;;;;;;11.60;7.70;;;;;;;6.40;57.76;100020.93;1703388;82;21144;-62
2021/04/29 01:03:18;;;;;;;9.35;7.55;;;;;;;6.38;57.77;100014.97;1704941;82;21144;-63
2021/04/29 01:05:56;;;;;;;9.75;6.92;;;;;;;6.36;57.87;100012.23;1680564;82;21194;-61
2021/04/29 01:08:30;;;;;;;9.38;6.60;;;;;;;6.36;57.88;100014.89;1732099;82;21626;-61
2021/04/29 01:11:13;;;;;;;7.90;6.33;;;;;;;6.35;57.97;100011.41;1706957;82;21197;-60
2021/04/29 01:13:44;;;;;;;14.93;8.18;;;;;;;6.39;58.03;100011.78;1699870;83;21193;-62
2021/04/29 01:16:12;;;;;;;10.40;7.80;;;;;;;6.38;58.08;100010.17;1721679;82;21602;-63
2021/04/29 01:18:40;;;;;;;12.18;7.95;;;;;;;6.37;58.11;100007.19;1731792;82;21659;-61
2021/04/29 01:21:15;;;;;;;9.63;7.42;;;;;;;6.38;58.13;100002.16;1706084;83;21173;-60
2021/04/29 01:23:52;;;;;;;11.85;7.12;;;;;;;6.38;58.15;100009.63;1732257;82;21173;-60
2021/04/29 01:26:53;;;;;;;12.03;9.03;;;;;;;6.36;58.29;100006.87;1712427;82;21198;-60
2021/04/29 01:29:28;;;;;;;8.90;7.78;;;;;;;6.33;58.26;100012.12;1703930;82;21694;-63
2021/04/29 01:31:57;;;;;;;10.35;8.03;;;;;;;6.33;58.23;100008.66;1711213;83;21224;-62
2021/04/29 01:34:31;;;;;;;14.30;8.33;;;;;;;6.33;58.39;100012.66;1723702;82;21169;-60
2021/04/29 01:37:00;;;;;;;;;;;;;;;6.27;58.58;100007.66;1736530;82;21216;-59
2021/04/29 01:39:28;;;;;;;8.08;6.12;;;;;;;6.27;58.58;100013.00;1683322;83;20225;-60
2021/04/29 01:41:56;;;;;;;9.50;7.50;;;;;;;6.24;58.60;100013.92;1705853;82;21093;-62
2021/04/29 01:44:24;;;;;;;10.93;7.22;;;;;;;6.24;58.60;100013.92;1710793;83;21136;-61
2021/04/29 01:46:54;;;;;;;11.05;8.35;;;;;;;6.24;58.89;100012.58;1708661;82;21574;-61
2021/04/29 01:49:23;;;;;;;16.07;8.10;;;;;;;6.21;58.94;100012.51;1649708;84;21965;-61
2021/04/29 01:51:51;;;;;;;9.18;6.42;;;;;;;6.21;59.09;100015.69;1704667;84;21694;-61
2021/04/29 01:54:20;;;;;;;11.15;7.78;;;;;;;6.20;59.16;100015.38;1704752;82;21047;-62
2021/04/29 01:56:48;;;;;;;14.25;8.93;;;;;;;6.16;59.33;100016.33;1680120;84;21273;-62
2021/04/29 01:59:16;;;;;;;17.30;10.90;;;;;;;6.06;59.73;100018.12;1679995;84;21198;-63
2021/04/29 02:01:44;;;;;;;12.10;7.95;;;;;;;5.95;60.04;100021.45;1706538;82;22713;-59
2021/04/29 02:04:12;;;;;;;18.05;10.55;;;;;;;5.92;60.19;100020.55;1680021;84;21193;-63
2021/04/29 02:06:44;;;;;;;17.27;11.12;;;;;;;5.89;60.28;100024.16;1681201;84;21238;-61
2021/04/29 02:09:12;;;;;;;23.42;14.28;;;;;;;5.85;60.34;100021.05;1708336;82;21586;-61
2021/04/29 02:11:59;;;;;;;25.90;15.78;;;;;;;5.84;60.20;100018.09;1693555;83;21157;-62
2021/04/29 02:14:36;;;;;;;31.00;16.97;;;;;;;5.84;60.09;100018.09;1724604;80;22242;-60
2021/04/29 02:17:08;;;;;;;24.45;17.42;;;;;;;5.84;60.06;100019.94;1732050;81;21250;-62
2021/04/29 02:19:39;;;;;;;27.65;17.42;;;;;;;5.81;60.10;100025.67;1743102;82;25018;-61
2021/04/29 02:22:08;;;;;;;55.67;21.73;;;;;;;5.78;60.07;100022.11;1729671;82;21169;-60
2021/04/29 02:24:36;;;;;;;42.00;21.68;;;;;;;5.75;60.16;100020.70;1697779;83;21408;-62
2021/04/29 02:27:07;;;;;;;36.60;20.05;;;;;;;5.67;60.45;100021.73;1720527;82;21170;-59
2021/04/29 02:29:35;;;;;;;36.00;18.23;;;;;;;5.63;60.69;100025.02;1703474;83;21140;-60
2021/04/29 02:32:04;;;;;;;38.67;19.57;;;;;;;5.62;60.77;100021.53;1771685;80;21599;-58
2021/04/29 02:34:33;;;;;;;30.62;16.97;;;;;;;5.62;60.75;100025.53;1746793;81;21202;-59
2021/04/29 02:37:01;;;;;;;38.88;18.75;;;;;;;5.62;60.87;100026.87;1752495;80;21105;-59
2021/04/29 02:39:30;;;;;;;31.27;19.80;;;;;;;5.58;61.05;100025.66;1717946;82;21265;-60
2021/04/29 02:41:58;;;;;;;39.15;21.65;;;;;;;5.54;61.13;100029.77;1737255;81;21029;-60
2021/04/29 02:44:27;;;;;;;32.40;19.48;;;;;;;5.52;61.25;100027.81;1705295;83;21627;-60
2021/04/29 02:46:56;;;;;;;36.48;19.77;;;;;;;5.50;61.42;100032.55;1694762;82;21145;-58
2021/04/29 02:49:24;;;;;;;39.00;20.82;;;;;;;5.48;61.58;100029.77;1688599;83;21198;-60
2021/04/29 02:51:52;;;;;;;44.45;24.25;;;;;;;5.45;61.63;100032.88;1713356;83;21272;-59
2021/04/29 02:54:20;;;;;;;62.13;26.30;;;;;;;5.42;61.68;100027.97;1713156;83;21053;-60
2021/04/29 02:56:47;;;;;;;54.03;25.97;;;;;;;5.42;61.73;100029.30;1702659;82;21252;-60
2021/04/29 02:59:15;;;;;;;62.17;26.33;;;;;;;5.42;61.78;100030.63;1742860;82;21148;-61
2021/04/29 03:01:43;;;;;;;47.15;23.38;;;;;;;5.40;61.83;100032.16;1713009;82;21149;-60
2021/04/29 03:04:11;;;;;;;55.45;23.85;;;;;;;5.33;62.24;100023.34;1737319;81;21909;-58
2021/04/29 03:44:09;;;;;;;44.60;28.03;;;;;;;4.90;65.98;100035.45;1703069;81;29719;-64
2021/04/29 03:46:37;;;;;;;41.55;25.27;;;;;;;4.93;65.91;100043.06;1674592;84;21710;-60
2021/04/29 03:49:11;;;;;;;52.47;32.97;;;;;;;4.97;65.87;100043.78;1825427;76;22709;-60
2021/04/29 03:51:40;;;;;;;52.38;28.80;;;;;;;4.94;65.91;100044.17;1750521;81;21608;-61
2021/04/29 03:54:08;;;;;;;48.70;30.25;;;;;;;5.03;65.88;100049.64;1732854;81;21463;-60
2021/04/29 03:56:37;;;;;;;43.87;25.77;;;;;;;5.12;65.75;100047.07;1787084;79;21035;-61
2021/04/29 03:59:05;;;;;;;30.10;18.07;;;;;;;5.20;65.72;100046.84;1788613;79;21602;-61
2021/04/29 04:01:35;;;;;;;34.50;20.02;;;;;;;5.30;65.82;100042.94;1817200;79;21126;-61
2021/04/29 04:04:03;;;;;;;25.12;16.05;;;;;;;5.35;65.91;100045.30;1816916;79;20980;-61
2021/04/29 04:06:33;;;;;;;19.98;13.50;;;;;;;5.41;65.91;100047.14;1800989;79;22133;-61
2021/04/29 04:09:04;;;;;;;22.15;12.73;;;;;;;5.48;65.94;100047.11;1785461;80;20979;-60
2021/04/29 04:11:32;;;;;;;16.65;10.78;;;;;;;5.54;65.79;100047.63;1785007;80;21023;-61
2021/04/29 04:14:02;;;;;;;19.07;11.43;;;;;;;5.59;65.75;100046.48;1815720;79;21145;-60
2021/04/29 04:16:30;;;;;;;20.72;11.38;;;;;;;5.65;65.65;100045.15;1793455;79;21141;-62
2021/04/29 04:18:59;;;;;;;21.10;10.75;;;;;;;5.70;65.61;100045.34;1787179;79;23456;-63
2021/04/29 04:21:27;;;;;;;16.52;10.90;;;;;;;5.74;65.61;100036.39;1784909;80;21129;-58
2021/04/29 04:23:54;;;;;;;16.80;11.45;;;;;;;5.79;65.61;100039.25;1784982;80;21212;-59
2021/04/29 04:26:22;;;;;;;13.03;9.93;;;;;;;5.84;65.62;100031.95;1798682;79;21598;-62
2021/04/29 04:28:49;;;;;;;19.48;11.40;;;;;;;5.89;65.58;100041.00;1817194;79;21546;-60
2021/04/29 04:31:17;;;;;;;17.30;10.55;;;;;;;5.94;65.66;100038.52;1815488;79;22396;-59
2021/04/29 04:33:45;;;;;;;12.58;9.23;;;;;;;5.99;65.69;100043.23;1779082;80;21629;-61
2021/04/29 04:36:13;;;;;;;13.15;9.18;;;;;;;6.05;65.73;100039.69;1754960;80;21145;-60
2021/04/29 04:38:41;;;;;;;13.93;9.73;;;;;;;6.10;65.73;100038.54;1753832;81;21620;-62
2021/04/29 04:41:08;;;;;;;13.00;10.32;;;;;;;6.18;65.66;100040.17;1705435;84;21184;-59
2021/04/29 04:43:36;;;;;;;14.90;10.28;;;;;;;6.23;65.56;100040.34;1702984;84;22306;-61
2021/04/29 04:46:04;;;;;;;11.63;9.08;;;;;;;6.29;65.57;100042.14;1755991;80;21186;-60
2021/04/29 04:48:31;;;;;;;23.77;10.68;;;;;;;6.36;65.50;100047.77;1753892;81;21175;-60
2021/04/29 04:50:59;;;;;;;12.47;8.85;;;;;;;6.43;65.42;100045.87;1746987;80;21140;-61
2021/04/29 04:53:27;;;;;;;12.47;9.38;;;;;;;6.51;65.39;100048.83;1741577;82;21156;-59
2021/04/29 04:55:55;;;;;;;14.28;9.33;;;;;;;6.55;65.30;100042.84;1738336;80;22198;-60
2021/04/29 04:58:23;;;;;;;14.85;9.38;;;;;;;6.65;65.24;100045.55;1705284;84;21046;-62
2021/04/29 05:00:50;;;;;;;9.53;8.58;;;;;;;6.73;65.16;100045.28;1689656;85;21124;-61
2021/04/29 05:03:18;;;;;;;17.73;8.85;;;;;;;6.86;65.21;100047.85;1704821;84;21172;-60
2021/04/29 05:05:47;;;;;;;11.65;8.08;;;;;;;6.86;65.21;100047.85;1689980;83;21593;-60
2021/04/29 05:08:15;;;;;;;16.00;9.80;;;;;;;6.94;65.01;100045.75;1749834;82;21219;-60
2021/04/29 05:10:43;;;;;;;13.50;9.20;;;;;;;7.12;64.82;100049.00;1731357;82;21196;-60
2021/04/29 05:13:10;;;;;;;16.30;9.95;;;;;;;7.12;64.82;100049.00;1720430;82;21649;-60
2021/04/29 05:15:38;;;;;;;12.40;9.85;;;;;;;7.21;64.77;100050.36;1751625;81;22264;-60
2021/04/29 05:18:05;;;;;;;18.62;10.28;;;;;;;7.33;64.70;100052.63;1783404;80;21573;-60
2021/04/29 05:20:37;;;;;;;12.33;9.13;;;;;;;7.43;64.57;100052.92;1784344;80;21404;-61
2021/04/29 05:23:04;;;;;;;11.03;8.98;;;;;;;7.54;64.45;100059.41;1784307;80;21043;-60
2021/04/29 05:25:33;;;;;;;11.15;8.45;;;;;;;7.63;64.36;100055.41;1784275;80;21113;-61
2021/04/29 05:28:04;;;;;;;12.07;9.83;;;;;;;7.74;64.21;100053.34;1778598;80;21585;-61
2021/04/29 05:30:32;;;;;;;17.17;9.85;;;;;;;7.84;63.97;100050.15;1736586;80;21219;-60
2021/04/29 05:33:00;;;;;;;13.95;9.65;;;;;;;7.92;63.82;100055.20;1732681;82;22310;-60
2021/04/29 05:35:27;;;;;;;11.88;9.23;;;;;;;8.01;63.83;100052.52;1738554;80;20991;-60
2021/04/29 05:37:55;;;;;;;12.75;9.48;;;;;;;8.12;63.63;100053.63;1771319;80;21642;-60
2021/04/29 05:40:23;;;;;;;11.57;9.13;;;;;;;8.20;63.47;100059.48;1784116;80;21569;-62
2021/04/29 05:42:52;;;;;;;15.75;10.32;;;;;;;8.32;63.29;100060.94;1784318;80;21581;-60
2021/04/29 05:45:20;;;;;;;11.43;9.05;;;;;;;8.43;63.17;100054.00;1784322;80;22376;-62
2021/04/29 05:47:47;;;;;;;17.07;10.60;;;;;;;8.52;63.00;100056.13;1767760;80;21201;-62
2021/04/29 05:50:15;;;;;;;11.12;8.80;;;;;;;8.61;62.82;100056.63;1760968;79;21211;-60
2021/04/29 05:52:43;;;;;;;10.58;8.25;;;;;;;8.70;62.64;100061.95;1783893;80;21149;-60
2021/04/29 05:55:12;;;;;;;14.75;10.28;;;;;;;8.78;62.17;100054.92;1782062;80;21165;-62
2021/04/29 05:57:39;;;;;;;12.00;8.28;;;;;;;8.86;61.86;100049.77;1755244;80;21200;-61
2021/04/29 06:00:09;;;;;;;11.28;8.80;;;;;;;8.94;61.41;100050.25;1784057;80;21141;-61
2021/04/29 06:02:41;;;;;;;16.75;13.75;;;;;;;9.01;60.97;100050.98;1784242;80;21117;-62
2021/04/29 06:05:11;;;;;;;14.63;8.63;;;;;;;9.07;60.46;100050.03;1784304;80;21078;-59
2021/04/29 06:07:38;;;;;;;15.18;9.15;;;;;;;9.14;60.24;100044.05;1755940;80;21137;-61
2021/04/29 06:10:08;;;;;;;10.93;8.63;;;;;;;9.21;59.86;100046.59;1704876;84;21445;-61
2021/04/29 06:12:36;;;;;;;10.78;8.58;;;;;;;9.29;59.65;100050.30;1709148;83;21022;-61
2021/04/29 06:15:07;;;;;;;8.50;7.67;;;;;;;9.38;59.01;100056.95;1739689;82;21057;-60
2021/04/29 06:17:34;;;;;;;7.50;6.70;;;;;;;9.46;58.54;100051.75;1721495;82;21617;-61
2021/04/29 06:20:03;;;;;;;10.75;8.18;;;;;;;9.53;58.13;100055.15;1784441;80;21590;-62
2021/04/29 06:22:31;;;;;;;10.63;8.53;;;;;;;9.59;58.10;100059.04;1783563;80;21192;-60
2021/04/29 06:24:58;;;;;;;12.45;7.75;;;;;;;9.67;57.98;100057.89;1784256;80;21637;-60
2021/04/29 06:27:26;;;;;;;8.85;7.62;;;;;;;9.75;57.88;100062.89;1784127;80;21141;-62
2021/04/29 06:29:54;;;;;;;8.83;7.87;;;;;;;9.82;57.79;100062.77;1784222;80;21138;-62
2021/04/29 06:32:21;;;;;;;13.80;8.00;;;;;;;9.88;57.76;100065.31;1782014;80;21546;-62
2021/04/29 06:34:49;;;;;;;11.40;7.87;;;;;;;9.96;57.80;100060.95;1783710;80;21555;-63
2021/04/29 06:37:21;;;;;;;13.28;8.50;;;;;;;10.05;57.56;100064.08;1752977;80;21152;-65
2021/04/29 06:39:49;;;;;;;9.28;8.38;;;;;;;10.08;57.53;100056.87;1753364;81;21169;-63
2021/04/29 06:42:17;;;;;;;8.78;7.90;;;;;;;10.13;57.28;100064.22;1774438;80;21153;-60
2021/04/29 06:44:44;;;;;;;9.83;8.98;;;;;;;10.16;56.94;100061.11;1766266;80;21652;-61
2021/04/29 06:47:12;;;;;;;10.20;8.28;;;;;;;10.18;56.56;100055.77;1743227;80;21528;-61
2021/04/29 06:49:40;;;;;;;9.20;8.40;;;;;;;10.21;56.12;100051.28;1728801;81;21167;-61
2021/04/29 06:52:07;;;;;;;9.03;8.23;;;;;;;10.26;55.76;100052.73;1742318;81;21077;-61
2021/04/29 06:54:35;;;;;;;10.53;7.92;;;;;;;10.33;55.46;100058.77;1752142;81;21176;-62
2021/04/29 06:57:04;;;;;;;8.13;7.33;;;;;;;10.32;55.32;100060.34;1751913;81;21096;-65
2021/04/29 06:59:33;;;;;;;9.53;7.97;;;;;;;10.34;55.54;100060.93;1752729;81;21359;-62
2021/04/29 07:02:01;;;;;;;5.90;5.35;;;;;;;10.38;55.48;100061.55;1751336;81;21627;-60
2021/04/29 07:04:30;;;;;;;10.38;8.43;;;;;;;10.42;55.18;100061.88;1748133;81;21172;-59
2021/04/29 07:06:58;;;;;;;11.75;8.28;;;;;;;10.44;55.51;100060.61;1743554;81;21156;-59
2021/04/29 07:09:26;;;;;;;8.93;6.72;;;;;;;10.50;55.44;100058.28;1742075;81;21124;-64
2021/04/29 07:11:56;;;;;;;7.90;7.12;;;;;;;10.58;55.43;100062.47;1739684;81;21628;-61
2021/04/29 07:14:24;;;;;;;9.15;6.67;;;;;;;10.60;55.25;100059.55;1751821;81;21151;-62
2021/04/29 07:16:52;;;;;;;8.63;7.58;;;;;;;10.67;55.06;100061.55;1752176;81;21574;-62
2021/04/29 07:19:20;;;;;;;12.58;9.73;;;;;;;10.74;54.97;100050.13;1752098;81;21592;-63
2021/04/29 07:21:48;;;;;;;9.53;7.70;;;;;;;10.83;54.55;100050.02;1738898;81;21183;-61
2021/04/29 07:24:15;;;;;;;8.95;8.05;;;;;;;10.89;54.56;100055.75;1680154;85;21390;-60
2021/04/29 07:26:43;;;;;;;10.10;7.47;;;;;;;10.93;54.67;100039.43;1682538;83;21209;-61
2021/04/29 07:29:11;;;;;;;8.98;7.85;;;;;;;11.01;54.69;100046.27;1681695;83;21030;-62
2021/04/29 07:31:39;;;;;;;8.48;7.30;;;;;;;11.09;54.48;100050.72;1688295;84;21256;-63
2021/04/29 07:34:08;;;;;;;9.38;8.30;;;;;;;11.14;54.30;100052.67;1706660;84;21169;-61
2021/04/29 07:36:36;;;;;;;10.68;7.72;;;;;;;11.19;54.15;100049.54;1708587;84;21688;-61
2021/04/29 07:39:04;;;;;;;13.28;8.25;;;;;;;11.22;54.18;100050.38;1708592;84;21608;-61
2021/04/29 07:41:32;;;;;;;17.35;7.72;;;;;;;11.22;54.18;100049.59;1708439;84;21593;-62
2021/04/29 07:44:01;;;;;;;11.38;10.28;;;;;;;11.25;54.11;100057.17;1707835;84;21129;-63
2021/04/29 07:46:31;;;;;;;9.50;7.55;;;;;;;11.33;53.81;100051.37;1708541;84;21209;-60
2021/04/29 07:48:59;;;;;;;9.65;8.65;;;;;;;11.38;53.64;100055.48;1717391;81;21215;-60
2021/04/29 07:51:27;;;;;;;10.78;7.45;;;;;;;11.42;53.48;100044.50;1732789;82;21596;-62
2021/04/29 07:53:55;;;;;;;11.88;7.70;;;;;;;11.47;53.57;100042.41;1733865;82;21164;-61
2021/04/29 07:56:22;;;;;;;13.58;6.85;;;;;;;11.51;52.67;100040.88;1784172;80;21189;-62
2021/04/29 07:58:50;;;;;;;16.07;7.72;;;;;;;11.54;52.44;100047.11;1766299;80;21133;-63
2021/04/29 08:01:17;;;;;;;7.47;5.53;;;;;;;11.51;52.07;100055.14;1764947;80;21380;-62
2021/04/29 08:03:45;;;;;;;8.00;6.75;;;;;;;11.48;52.14;100050.26;1783831;80;21177;-61
2021/04/29 08:06:12;;;;;;;15.58;6.37;;;;;;;11.50;52.18;100035.20;1784190;80;20991;-61
2021/04/29 08:08:41;;;;;;;16.75;6.65;;;;;;;11.54;51.55;100039.84;1776253;80;21149;-62
2021/04/29 08:11:12;;;;;;;9.13;6.50;;;;;;;11.58;51.17;100036.13;1704409;84;21168;-60
2021/04/29 08:13:38;;;;;;;10.90;6.87;;;;;;;11.63;50.84;100036.19;1710223;83;22746;-62
2021/04/29 08:16:06;;;;;;;13.75;7.05;;;;;;;11.71;50.83;100037.92;1724849;82;21588;-62
2021/04/29 08:18:34;;;;;;;5.40;4.55;;;;;;;11.78;50.45;100035.09;1778017;80;21587;-62
2021/04/29 08:21:03;;;;;;;10.35;6.00;;;;;;;11.88;50.26;100019.06;1771479;79;21161;-63
2021/04/29 08:23:31;;;;;;;6.85;6.15;;;;;;;11.99;50.11;100022.70;1761013;80;22309;-64
2021/04/29 08:25:59;;;;;;;9.03;5.25;;;;;;;12.12;49.66;100019.63;1773811;80;21251;-63
2021/04/29 08:28:26;;;;;;;7.40;4.40;;;;;;;12.18;48.55;100020.75;1769829;80;21657;-63
2021/04/29 08:30:55;;;;;;;9.88;6.55;;;;;;;12.29;48.49;100015.48;1784150;79;21129;-62
2021/04/29 08:33:23;;;;;;;8.25;6.55;;;;;;;12.34;47.92;100023.63;1784007;80;21153;-63
2021/04/29 08:35:51;;;;;;;6.55;5.97;;;;;;;12.35;47.96;100018.53;1784135;80;21014;-61
2021/04/29 08:38:19;;;;;;;8.50;6.08;;;;;;;12.31;47.83;100010.13;1780100;80;21375;-61
2021/04/29 08:40:48;;;;;;;8.53;5.80;;;;;;;12.37;47.36;100013.17;1773688;80;21026;-61
2021/04/29 08:43:19;;;;;;;8.50;6.00;;;;;;;12.43;47.57;100020.76;1784351;80;21181;-66
2021/04/29 08:45:47;;;;;;;7.05;6.25;;;;;;;12.46;47.67;100004.91;1784322;80;21125;-60
2021/04/29 08:48:24;;;;;;;12.10;5.92;;;;;;;12.55;47.85;100009.30;1781992;80;21117;-63
2021/04/29 08:50:52;;;;;;;10.68;7.60;;;;;;;12.64;47.85;100008.59;1749139;81;21231;-62
2021/04/29 08:53:19;;;;;;;8.10;6.70;;;;;;;12.75;47.46;100005.98;1764851;80;21136;-62
2021/04/29 08:55:47;;;;;;;7.95;6.67;;;;;;;12.78;47.29;99994.66;1748964;82;21034;-66
2021/04/29 08:58:15;;;;;;;15.23;10.15;;;;;;;12.82;47.09;99994.42;1749571;80;21590;-62
2021/04/29 09:00:43;;;;;;;7.45;6.22;;;;;;;12.85;46.88;99992.05;1749102;81;22256;-63
2021/04/29 09:03:12;;;;;;;7.22;5.28;;;;;;;12.84;46.60;99989.06;1749156;80;21112;-62
2021/04/29 09:05:43;;;;;;;8.73;5.35;;;;;;;12.83;46.93;99981.22;1748924;82;21147;-61
2021/04/29 09:08:10;;;;;;;19.05;6.28;;;;;;;12.88;47.03;99985.31;1731059;82;21008;-63
2021/04/29 09:10:40;;;;;;;7.95;5.20;;;;;;;12.96;46.83;99976.19;1700290;84;21179;-60
2021/04/29 09:13:17;;;;;;;8.73;5.60;;;;;;;13.04;46.54;99966.25;1725830;82;21198;-61
2021/04/29 09:15:46;;;;;;;15.98;6.58;;;;;;;13.17;46.55;99975.03;1759532;80;21359;-61
2021/04/29 09:18:16;;;;;;;6.92;5.58;;;;;;;13.28;46.20;99960.52;1755480;80;21161;-62
2021/04/29 09:21:01;;;;;;;7.85;5.60;;;;;;;13.33;45.93;99959.99;1761248;81;21167;-64
2021/04/29 09:23:30;;;;;;;6.50;5.10;;;;;;;13.44;45.99;99954.12;1777699;80;21625;-66
2021/04/29 09:26:02;;;;;;;9.55;5.60;;;;;;;13.58;45.77;99948.52;1759280;81;21631;-64
2021/04/29 09:28:52;;;;;;;9.93;6.12;;;;;;;13.75;45.88;99935.63;1773844;80;21157;-64
2021/04/29 09:31:27;;;;;;;7.45;6.53;;;;;;;13.92;45.51;99940.28;1759964;81;21608;-62
2021/04/29 09:33:58;;;;;;;10.35;5.85;;;;;;;13.95;44.82;99940.30;1772084;80;21736;-62
2021/04/29 09:36:39;;;;;;;9.38;5.72;;;;;;;13.81;45.05;99936.47;1730696;82;21184;-62
2021/04/29 09:39:15;;;;;;;12.45;5.25;;;;;;;13.77;45.22;99925.88;1758457;81;21138;-61
2021/04/29 09:41:50;;;;;;;7.05;4.75;;;;;;;13.80;45.06;99928.89;1761202;81;21367;-63
2021/04/29 09:44:20;;;;;;;6.00;5.37;;;;;;;13.87;45.12;99936.20;1752736;81;21153;-69
2021/04/29 09:46:49;;;;;;;8.15;5.50;;;;;;;13.94;44.88;99921.91;1747101;81;21062;-66
2021/04/29 09:49:33;;;;;;;11.55;5.28;;;;;;;13.97;44.67;99917.31;1756338;81;21185;-64
2021/04/29 09:52:04;;;;;;;13.03;5.28;;;;;;;14.03;44.85;99907.32;1764546;81;21623;-63
2021/04/29 09:54:40;;;;;;;14.43;5.60;;;;;;;14.13;44.53;99907.88;1764035;81;21453;-63
2021/04/29 09:57:16;;;;;;;9.50;5.83;;;;;;;14.19;44.44;99908.17;1766114;81;21173;-62
2021/04/29 09:59:50;;;;;;;5.83;3.83;;;;;;;14.22;44.44;99908.44;1766418;81;21165;-64
2021/04/29 10:02:18;;;;;;;9.05;4.92;;;;;;;14.20;44.30;99902.47;1763763;81;21166;-62
2021/04/29 10:04:46;;;;;;;8.73;5.15;;;;;;;14.28;44.31;99895.73;1766341;81;21491;-61
2021/04/29 10:07:16;;;;;;;8.03;4.87;;;;;;;14.40;44.26;99899.02;1749170;81;21213;-61
2021/04/29 10:09:44;;;;;;;5.55;5.00;;;;;;;14.51;44.54;99895.23;1735982;82;21121;-62
2021/04/29 10:12:14;;;;;;;6.58;5.15;;;;;;;14.62;44.22;99887.94;1704991;84;21567;-66
2021/04/29 10:14:47;;;;;;;9.95;4.72;;;;;;;14.67;43.80;99891.45;1735722;82;21134;-62
2021/04/29 10:17:17;;;;;;;9.88;5.37;;;;;;;14.63;43.79;99886.29;1705278;82;21207;-64
2021/04/29 10:19:47;;;;;;;11.57;6.45;;;;;;;14.72;43.83;99877.11;1756602;81;21246;-63
2021/04/29 10:22:16;;;;;;;5.80;5.25;;;;;;;14.82;43.32;99878.42;1756656;81;21169;-62
2021/04/29 10:24:45;;;;;;;7.20;4.80;;;;;;;14.89;43.13;99870.84;1756937;80;21581;-64
2021/04/29 10:27:20;;;;;;;7.10;3.62;;;;;;;14.97;42.99;99876.23;1760417;80;21550;-65
2021/04/29 10:29:48;;;;;;;7.17;4.37;;;;;;;15.09;42.79;99867.28;1780016;80;21678;-63
2021/04/29 10:32:16;;;;;;;6.25;4.10;;;;;;;15.17;42.38;99859.39;1768986;80;22300;-61
2021/04/29 10:34:49;;;;;;;15.10;4.35;;;;;;;15.23;41.87;99871.03;1788352;80;21137;-67
2021/04/29 10:37:21;;;;;;;4.47;3.98;;;;;;;15.20;41.94;99871.59;1787949;80;21084;-63
2021/04/29 10:40:02;;;;;;;10.03;3.75;;;;;;;15.23;42.09;99865.61;1787811;80;21109;-62
2021/04/29 10:42:33;;;;;;;7.70;3.40;;;;;;;15.35;41.83;99872.88;1783476;80;21165;-64
2021/04/29 10:45:10;;;;;;;7.00;3.75;;;;;;;15.39;41.43;99861.77;1786225;80;21212;-68
2021/04/29 10:47:39;;;;;;;5.05;4.45;;;;;;;15.43;41.50;99857.41;1787720;80;21145;-69
2021/04/29 10:50:14;;;;;;;6.47;3.92;;;;;;;15.46;41.70;99860.91;1779319;80;21185;-72
2021/04/29 10:52:53;;;;;;;7.55;4.22;;;;;;;15.56;41.37;99860.09;1763788;80;21531;-65
2021/04/29 10:55:33;;;;;;;6.50;4.30;;;;;;;15.55;41.31;99857.11;1779517;80;21166;-68
2021/04/29 10:58:08;;;;;;;3.77;3.30;;;;;;;15.58;41.00;99849.79;1779771;80;21413;-66
2021/04/29 11:00:54;;;;;;;14.95;5.90;;;;;;;15.65;41.14;99836.19;1779741;80;21129;-65
2021/04/29 11:03:38;;;;;;;6.03;4.30;;;;;;;15.76;40.72;99845.62;1752273;80;20991;-67
2021/04/29 11:06:22;;;;;;;8.60;3.58;;;;;;;15.83;41.95;99847.47;1730897;82;21142;-68
2021/04/29 11:08:53;;;;;;;6.45;4.05;;;;;;;16.01;40.83;99842.22;1700265;84;21119;-63
2021/04/29 11:14:16;;;;;;;12.82;4.10;;;;;;;16.29;39.95;99848.80;1846959;76;22811;-62
2021/04/29 11:16:55;;;;;;;5.50;4.17;;;;;;;16.29;40.10;99860.19;1817121;79;21149;-61
2021/04/29 11:19:42;;;;;;;3.92;3.40;;;;;;;16.37;39.83;99849.53;1807175;79;21353;-61
2021/04/29 11:22:16;;;;;;;6.58;4.12;;;;;;;16.41;39.85;99841.08;1808009;77;21158;-60
2021/04/29 11:24:47;;;;;;;5.08;3.62;;;;;;;16.48;39.75;99827.19;1798516;79;26613;-67
2021/04/29 11:27:25;;;;;;;4.62;3.72;;;;;;;16.53;39.85;99823.07;1816580;79;21561;-62
2021/04/29 11:30:01;;;;;;;3.65;3.35;;;;;;;16.65;39.61;99826.23;1736766;81;20970;-63
2021/04/29 11:32:32;;;;;;;10.95;4.95;;;;;;;16.71;39.47;99829.17;1702310;84;21208;-68
2021/04/29 11:35:01;;;;;;;11.18;6.65;;;;;;;16.82;39.85;99831.24;1753788;81;20988;-64
2021/04/29 11:37:41;;;;;;;6.87;4.90;;;;;;;16.85;39.32;99833.37;1753831;81;21423;-67
2021/04/29 11:40:13;;;;;;;5.20;4.70;;;;;;;16.77;39.82;99817.16;1755900;80;21483;-63
2021/04/29 11:42:44;;;;;;;6.35;4.80;;;;;;;16.83;39.89;99823.36;1768822;79;21121;-63
2021/04/29 11:45:16;;;;;;;6.05;5.10;;;;;;;16.94;39.89;99827.56;1729606;81;21356;-68
2021/04/29 11:48:12;;;;;;;6.35;5.03;;;;;;;16.97;39.13;99830.54;1752154;81;21185;-60
2021/04/29 11:50:58;;;;;;;6.00;4.50;;;;;;;16.99;39.00;99823.44;1754578;80;21130;-62
2021/04/29 11:53:27;;;;;;;5.72;3.87;;;;;;;16.89;39.15;99815.39;1747860;82;21120;-63
2021/04/29 11:58:41;;;;;;;6.67;4.55;;;;;;;17.09;39.13;99793.98;1890023;76;22623;-63
2021/04/29 12:01:14;;;;;;;7.80;4.78;;;;;;;17.08;39.21;99799.96;1857850;77;20932;-62
2021/04/29 12:03:43;;;;;;;8.15;4.30;;;;;;;17.11;39.14;99788.53;1879993;75;21417;-65
2021/04/29 12:06:13;;;;;;;4.62;3.87;;;;;;;17.16;38.50;99791.73;1825448;78;20987;-65
2021/04/29 12:08:43;;;;;;;4.42;3.37;;;;;;;17.15;38.93;99781.95;1825620;78;21554;-63
2021/04/29 12:11:11;;;;;;;7.33;4.70;;;;;;;17.25;38.64;99784.00;1816912;78;21066;-63
2021/04/29 12:13:51;;;;;;;19.45;4.58;;;;;;;17.31;38.22;99772.52;1760868;80;20951;-62
2021/04/29 12:16:28;;;;;;;4.90;3.92;;;;;;;17.32;38.01;99772.75;1794089;80;20986;-65
2021/04/29 12:18:57;;;;;;;7.92;4.97;;;;;;;17.34;37.83;99767.84;1793335;80;20970;-62
2021/04/29 12:21:28;;;;;;;7.70;4.10;;;;;;;17.42;37.96;99770.71;1795136;79;21173;-63
2021/04/29 12:23:59;;;;;;;15.70;3.67;;;;;;;17.44;38.08;99778.04;1787503;80;21162;-65